sensor_id;sensor_type;location;lat;lon;timestamp;P1;durP1;ratioP1;P2;durP2;ratioP2
22378;SDS011;11357;49.990;7.370;2023-05-07T00:00:22;1999.90;;;928.47;;
22378;SDS011;11357;49.990;7.370;2023-05-07T00:02:48;1999.90;;;901.97;;
22378;SDS011;11357;49.990;7.370;2023-05-07T00:05:13;1999.90;;;882.53;;
22378;SDS011;11357;49.990;7.370;2023-05-07T00:07:39;1999.90;;;883.80;;
22378;SDS011;11357;49.990;7.370;2023-05-07T00:10:05;1999.90;;;945.37;;
22378;SDS011;11357;49.990;7.370;2023-05-07T00:12:32;1999.90;;;917.37;;
22378;SDS011;11357;49.990;7.370;2023-05-07T00:15:04;1999.90;;;864.60;;
22378;SDS011;11357;49.990;7.370;2023-05-07T00:17:31;1999.90;;;864.87;;
22378;SDS011;11357;49.990;7.370;2023-05-07T00:19:57;1999.90;;;802.93;;
22378;SDS011;11357;49.990;7.370;2023-05-07T00:22:23;1999.90;;;838.47;;
22378;SDS011;11357;49.990;7.370;2023-05-07T00:24:49;1999.90;;;854.20;;
22378;SDS011;11357;49.990;7.370;2023-05-07T00:27:15;1999.90;;;921.40;;
22378;SDS011;11357;49.990;7.370;2023-05-07T00:29:40;1999.90;;;914.80;;
22378;SDS011;11357;49.990;7.370;2023-05-07T00:32:06;1999.90;;;888.37;;
22378;SDS011;11357;49.990;7.370;2023-05-07T00:34:33;1999.90;;;886.07;;
22378;SDS011;11357;49.990;7.370;2023-05-07T00:36:58;1999.90;;;917.63;;
22378;SDS011;11357;49.990;7.370;2023-05-07T00:39:24;1999.90;;;907.10;;
22378;SDS011;11357;49.990;7.370;2023-05-07T00:41:50;1999.90;;;893.23;;
22378;SDS011;11357;49.990;7.370;2023-05-07T00:44:16;1999.90;;;919.73;;
22378;SDS011;11357;49.990;7.370;2023-05-07T00:46:43;1999.90;;;902.07;;
22378;SDS011;11357;49.990;7.370;2023-05-07T00:49:10;1999.90;;;919.43;;
22378;SDS011;11357;49.990;7.370;2023-05-07T00:51:36;1999.90;;;913.27;;
22378;SDS011;11357;49.990;7.370;2023-05-07T00:54:02;1999.90;;;914.27;;
22378;SDS011;11357;49.990;7.370;2023-05-07T00:56:28;1999.90;;;952.33;;
22378;SDS011;11357;49.990;7.370;2023-05-07T00:58:54;1999.90;;;959.33;;
22378;SDS011;11357;49.990;7.370;2023-05-07T01:01:20;1999.90;;;924.93;;
22378;SDS011;11357;49.990;7.370;2023-05-07T01:03:46;1999.90;;;949.13;;
22378;SDS011;11357;49.990;7.370;2023-05-07T01:06:12;1999.90;;;933.77;;
22378;SDS011;11357;49.990;7.370;2023-05-07T01:08:41;1999.90;;;899.73;;
22378;SDS011;11357;49.990;7.370;2023-05-07T01:11:08;1999.90;;;912.87;;
22378;SDS011;11357;49.990;7.370;2023-05-07T01:13:35;1999.90;;;913.60;;
22378;SDS011;11357;49.990;7.370;2023-05-07T01:16:02;1999.90;;;938.60;;
22378;SDS011;11357;49.990;7.370;2023-05-07T01:18:28;1999.90;;;961.43;;
22378;SDS011;11357;49.990;7.370;2023-05-07T01:20:55;1999.90;;;920.50;;
22378;SDS011;11357;49.990;7.370;2023-05-07T01:23:24;1999.90;;;939.23;;
22378;SDS011;11357;49.990;7.370;2023-05-07T01:25:52;1999.90;;;885.90;;
22378;SDS011;11357;49.990;7.370;2023-05-07T01:28:19;1999.90;;;946.23;;
22378;SDS011;11357;49.990;7.370;2023-05-07T01:30:46;1999.90;;;924.37;;
22378;SDS011;11357;49.990;7.370;2023-05-07T01:33:18;1999.90;;;885.00;;
22378;SDS011;11357;49.990;7.370;2023-05-07T01:35:47;1999.90;;;836.30;;
22378;SDS011;11357;49.990;7.370;2023-05-07T01:38:16;1999.90;;;885.00;;
22378;SDS011;11357;49.990;7.370;2023-05-07T01:40:43;1999.90;;;897.67;;
22378;SDS011;11357;49.990;7.370;2023-05-07T01:43:09;1999.90;;;907.30;;
22378;SDS011;11357;49.990;7.370;2023-05-07T01:45:36;1999.90;;;901.27;;
22378;SDS011;11357;49.990;7.370;2023-05-07T01:48:02;1999.90;;;925.83;;
22378;SDS011;11357;49.990;7.370;2023-05-07T01:50:29;1999.90;;;904.27;;
22378;SDS011;11357;49.990;7.370;2023-05-07T01:52:56;1999.90;;;873.17;;
22378;SDS011;11357;49.990;7.370;2023-05-07T01:55:22;1999.90;;;783.10;;
22378;SDS011;11357;49.990;7.370;2023-05-07T01:57:48;1999.90;;;804.40;;
22378;SDS011;11357;49.990;7.370;2023-05-07T02:00:14;1999.90;;;844.67;;
22378;SDS011;11357;49.990;7.370;2023-05-07T02:02:40;1999.90;;;828.37;;
22378;SDS011;11357;49.990;7.370;2023-05-07T02:05:06;1999.90;;;834.97;;
22378;SDS011;11357;49.990;7.370;2023-05-07T02:07:32;1999.90;;;868.10;;
22378;SDS011;11357;49.990;7.370;2023-05-07T02:09:58;1999.90;;;882.30;;
22378;SDS011;11357;49.990;7.370;2023-05-07T02:12:24;1999.90;;;920.60;;
22378;SDS011;11357;49.990;7.370;2023-05-07T02:14:49;1999.90;;;851.60;;
22378;SDS011;11357;49.990;7.370;2023-05-07T02:17:15;1999.90;;;842.77;;
22378;SDS011;11357;49.990;7.370;2023-05-07T02:19:41;1999.90;;;742.70;;
22378;SDS011;11357;49.990;7.370;2023-05-07T02:22:07;1999.90;;;834.03;;
22378;SDS011;11357;49.990;7.370;2023-05-07T02:24:35;1999.90;;;755.43;;
22378;SDS011;11357;49.990;7.370;2023-05-07T02:27:00;1999.90;;;829.07;;
22378;SDS011;11357;49.990;7.370;2023-05-07T02:29:27;1999.90;;;819.63;;
22378;SDS011;11357;49.990;7.370;2023-05-07T02:31:53;1999.90;;;895.40;;
22378;SDS011;11357;49.990;7.370;2023-05-07T02:34:19;1999.90;;;869.57;;
22378;SDS011;11357;49.990;7.370;2023-05-07T02:36:45;1999.90;;;835.50;;
22378;SDS011;11357;49.990;7.370;2023-05-07T02:39:11;1999.90;;;826.50;;
22378;SDS011;11357;49.990;7.370;2023-05-07T02:41:37;1999.90;;;804.83;;
22378;SDS011;11357;49.990;7.370;2023-05-07T02:44:03;1999.90;;;743.03;;
22378;SDS011;11357;49.990;7.370;2023-05-07T02:46:29;1999.90;;;730.60;;
22378;SDS011;11357;49.990;7.370;2023-05-07T02:48:55;1999.90;;;724.13;;
22378;SDS011;11357;49.990;7.370;2023-05-07T02:51:21;1999.90;;;703.93;;
22378;SDS011;11357;49.990;7.370;2023-05-07T02:53:47;1999.90;;;794.87;;
22378;SDS011;11357;49.990;7.370;2023-05-07T02:56:13;1999.90;;;810.83;;
22378;SDS011;11357;49.990;7.370;2023-05-07T02:58:39;1999.90;;;673.30;;
22378;SDS011;11357;49.990;7.370;2023-05-07T03:01:07;1999.90;;;693.17;;
22378;SDS011;11357;49.990;7.370;2023-05-07T03:03:33;1999.90;;;778.43;;
22378;SDS011;11357;49.990;7.370;2023-05-07T03:05:59;1999.90;;;738.83;;
22378;SDS011;11357;49.990;7.370;2023-05-07T03:08:26;1999.90;;;881.53;;
22378;SDS011;11357;49.990;7.370;2023-05-07T03:10:51;1999.90;;;894.13;;
22378;SDS011;11357;49.990;7.370;2023-05-07T03:13:17;1999.90;;;937.60;;
22378;SDS011;11357;49.990;7.370;2023-05-07T03:15:43;1999.90;;;874.23;;
22378;SDS011;11357;49.990;7.370;2023-05-07T03:18:08;1999.90;;;861.87;;
22378;SDS011;11357;49.990;7.370;2023-05-07T03:20:34;1999.90;;;808.83;;
22378;SDS011;11357;49.990;7.370;2023-05-07T03:23:01;1999.90;;;768.97;;
22378;SDS011;11357;49.990;7.370;2023-05-07T03:25:27;1999.90;;;760.53;;
22378;SDS011;11357;49.990;7.370;2023-05-07T03:27:55;1999.90;;;821.70;;
22378;SDS011;11357;49.990;7.370;2023-05-07T03:30:21;1999.90;;;803.40;;
22378;SDS011;11357;49.990;7.370;2023-05-07T03:32:46;1999.90;;;804.67;;
22378;SDS011;11357;49.990;7.370;2023-05-07T03:35:12;1999.90;;;786.30;;
22378;SDS011;11357;49.990;7.370;2023-05-07T03:37:38;1999.90;;;754.67;;
22378;SDS011;11357;49.990;7.370;2023-05-07T03:40:05;1999.90;;;711.10;;
22378;SDS011;11357;49.990;7.370;2023-05-07T03:42:31;1999.90;;;655.67;;
22378;SDS011;11357;49.990;7.370;2023-05-07T03:44:57;1999.90;;;672.73;;
22378;SDS011;11357;49.990;7.370;2023-05-07T03:47:23;1999.90;;;806.80;;
22378;SDS011;11357;49.990;7.370;2023-05-07T03:49:49;1999.90;;;852.03;;
22378;SDS011;11357;49.990;7.370;2023-05-07T03:52:17;1999.90;;;743.40;;
22378;SDS011;11357;49.990;7.370;2023-05-07T03:54:48;1999.90;;;801.03;;
22378;SDS011;11357;49.990;7.370;2023-05-07T03:57:14;1999.90;;;801.60;;
22378;SDS011;11357;49.990;7.370;2023-05-07T03:59:40;1999.90;;;798.67;;
22378;SDS011;11357;49.990;7.370;2023-05-07T04:02:06;1999.90;;;779.80;;
22378;SDS011;11357;49.990;7.370;2023-05-07T04:04:32;1999.90;;;832.83;;
22378;SDS011;11357;49.990;7.370;2023-05-07T04:06:58;1999.90;;;783.70;;
22378;SDS011;11357;49.990;7.370;2023-05-07T04:09:25;1999.90;;;748.93;;
22378;SDS011;11357;49.990;7.370;2023-05-07T04:11:51;1999.90;;;784.33;;
22378;SDS011;11357;49.990;7.370;2023-05-07T04:14:17;1999.90;;;803.17;;
22378;SDS011;11357;49.990;7.370;2023-05-07T04:16:42;1999.90;;;848.77;;
22378;SDS011;11357;49.990;7.370;2023-05-07T04:19:08;1999.90;;;872.43;;
22378;SDS011;11357;49.990;7.370;2023-05-07T04:21:34;1999.90;;;898.20;;
22378;SDS011;11357;49.990;7.370;2023-05-07T04:23:59;1999.90;;;859.03;;
22378;SDS011;11357;49.990;7.370;2023-05-07T04:26:25;1999.90;;;857.93;;
22378;SDS011;11357;49.990;7.370;2023-05-07T04:28:51;1999.90;;;914.07;;
22378;SDS011;11357;49.990;7.370;2023-05-07T04:31:17;1999.90;;;927.90;;
22378;SDS011;11357;49.990;7.370;2023-05-07T04:33:42;1999.90;;;958.47;;
22378;SDS011;11357;49.990;7.370;2023-05-07T04:36:08;1999.90;;;913.13;;
22378;SDS011;11357;49.990;7.370;2023-05-07T04:38:34;1999.90;;;892.67;;
22378;SDS011;11357;49.990;7.370;2023-05-07T04:41:03;1999.90;;;867.60;;
22378;SDS011;11357;49.990;7.370;2023-05-07T04:43:30;1999.90;;;885.30;;
22378;SDS011;11357;49.990;7.370;2023-05-07T04:45:56;1999.90;;;915.03;;
22378;SDS011;11357;49.990;7.370;2023-05-07T04:48:21;1999.90;;;904.47;;
22378;SDS011;11357;49.990;7.370;2023-05-07T04:50:47;1999.90;;;896.87;;
22378;SDS011;11357;49.990;7.370;2023-05-07T04:53:14;1999.90;;;900.37;;
22378;SDS011;11357;49.990;7.370;2023-05-07T04:55:40;1999.90;;;824.20;;
22378;SDS011;11357;49.990;7.370;2023-05-07T04:58:05;1999.90;;;871.33;;
22378;SDS011;11357;49.990;7.370;2023-05-07T05:00:31;1999.90;;;931.03;;
22378;SDS011;11357;49.990;7.370;2023-05-07T05:02:57;1999.90;;;923.53;;
22378;SDS011;11357;49.990;7.370;2023-05-07T05:05:22;1999.90;;;981.03;;
22378;SDS011;11357;49.990;7.370;2023-05-07T05:07:48;1999.90;;;968.03;;
22378;SDS011;11357;49.990;7.370;2023-05-07T05:10:14;1999.90;;;968.23;;
22378;SDS011;11357;49.990;7.370;2023-05-07T05:12:41;1999.90;;;969.80;;
22378;SDS011;11357;49.990;7.370;2023-05-07T05:15:07;1999.90;;;935.03;;
22378;SDS011;11357;49.990;7.370;2023-05-07T05:17:33;1999.90;;;955.03;;
22378;SDS011;11357;49.990;7.370;2023-05-07T05:20:00;1999.90;;;952.30;;
22378;SDS011;11357;49.990;7.370;2023-05-07T05:22:25;1999.90;;;935.87;;
22378;SDS011;11357;49.990;7.370;2023-05-07T05:24:51;1999.90;;;948.70;;
22378;SDS011;11357;49.990;7.370;2023-05-07T05:27:17;1999.90;;;957.83;;
22378;SDS011;11357;49.990;7.370;2023-05-07T05:29:43;1999.90;;;958.30;;
22378;SDS011;11357;49.990;7.370;2023-05-07T05:32:08;1999.90;;;947.67;;
22378;SDS011;11357;49.990;7.370;2023-05-07T05:34:35;1999.90;;;952.77;;
22378;SDS011;11357;49.990;7.370;2023-05-07T05:37:00;1999.90;;;920.13;;
22378;SDS011;11357;49.990;7.370;2023-05-07T05:39:26;1999.90;;;946.20;;
22378;SDS011;11357;49.990;7.370;2023-05-07T05:41:52;1999.90;;;939.60;;
22378;SDS011;11357;49.990;7.370;2023-05-07T05:44:17;1999.90;;;955.80;;
22378;SDS011;11357;49.990;7.370;2023-05-07T05:46:43;1999.90;;;940.83;;
22378;SDS011;11357;49.990;7.370;2023-05-07T05:49:09;1999.90;;;964.60;;
22378;SDS011;11357;49.990;7.370;2023-05-07T05:51:35;1999.90;;;931.20;;
22378;SDS011;11357;49.990;7.370;2023-05-07T05:54:00;1999.90;;;938.63;;
22378;SDS011;11357;49.990;7.370;2023-05-07T05:56:26;1999.90;;;910.33;;
22378;SDS011;11357;49.990;7.370;2023-05-07T05:58:52;1999.90;;;930.63;;
22378;SDS011;11357;49.990;7.370;2023-05-07T06:01:18;1999.90;;;917.60;;
22378;SDS011;11357;49.990;7.370;2023-05-07T06:03:44;1999.90;;;900.73;;
22378;SDS011;11357;49.990;7.370;2023-05-07T06:06:10;1999.90;;;872.30;;
22378;SDS011;11357;49.990;7.370;2023-05-07T06:08:35;1999.90;;;898.97;;
22378;SDS011;11357;49.990;7.370;2023-05-07T06:11:01;1999.90;;;922.10;;
22378;SDS011;11357;49.990;7.370;2023-05-07T06:13:28;1999.90;;;901.13;;
22378;SDS011;11357;49.990;7.370;2023-05-07T06:15:53;1999.90;;;865.77;;
22378;SDS011;11357;49.990;7.370;2023-05-07T06:18:19;1999.90;;;939.40;;
22378;SDS011;11357;49.990;7.370;2023-05-07T06:20:45;1999.90;;;930.30;;
22378;SDS011;11357;49.990;7.370;2023-05-07T06:23:11;1999.90;;;939.30;;
22378;SDS011;11357;49.990;7.370;2023-05-07T06:25:36;1999.90;;;919.27;;
22378;SDS011;11357;49.990;7.370;2023-05-07T06:28:02;1999.90;;;879.00;;
22378;SDS011;11357;49.990;7.370;2023-05-07T06:30:28;1999.90;;;922.23;;
22378;SDS011;11357;49.990;7.370;2023-05-07T06:32:53;1999.90;;;926.53;;
22378;SDS011;11357;49.990;7.370;2023-05-07T06:35:19;1999.90;;;912.17;;
22378;SDS011;11357;49.990;7.370;2023-05-07T06:37:45;1999.90;;;728.90;;
22378;SDS011;11357;49.990;7.370;2023-05-07T06:40:11;1999.90;;;535.27;;
22378;SDS011;11357;49.990;7.370;2023-05-07T06:42:37;1999.90;;;999.90;;
22378;SDS011;11357;49.990;7.370;2023-05-07T06:45:03;1999.90;;;999.90;;
22378;SDS011;11357;49.990;7.370;2023-05-07T06:47:29;1999.90;;;910.97;;
22378;SDS011;11357;49.990;7.370;2023-05-07T06:49:55;1999.90;;;999.90;;
22378;SDS011;11357;49.990;7.370;2023-05-07T06:52:21;1999.90;;;764.33;;
22378;SDS011;11357;49.990;7.370;2023-05-07T06:54:46;1999.90;;;866.50;;
22378;SDS011;11357;49.990;7.370;2023-05-07T06:57:12;1999.90;;;999.90;;
22378;SDS011;11357;49.990;7.370;2023-05-07T06:59:38;1999.90;;;930.03;;
22378;SDS011;11357;49.990;7.370;2023-05-07T07:02:04;1999.90;;;839.50;;
22378;SDS011;11357;49.990;7.370;2023-05-07T07:04:30;1999.90;;;785.37;;
22378;SDS011;11357;49.990;7.370;2023-05-07T07:06:56;1999.90;;;999.90;;
22378;SDS011;11357;49.990;7.370;2023-05-07T07:09:22;1573.63;;;822.17;;
22378;SDS011;11357;49.990;7.370;2023-05-07T07:11:48;1999.90;;;874.30;;
22378;SDS011;11357;49.990;7.370;2023-05-07T07:14:13;850.70;;;602.90;;
22378;SDS011;11357;49.990;7.370;2023-05-07T07:16:39;1256.53;;;746.27;;
22378;SDS011;11357;49.990;7.370;2023-05-07T07:19:05;643.23;;;575.17;;
22378;SDS011;11357;49.990;7.370;2023-05-07T07:21:31;533.67;;;481.10;;
22378;SDS011;11357;49.990;7.370;2023-05-07T07:23:57;1310.28;;;745.72;;
22378;SDS011;11357;49.990;7.370;2023-05-07T07:26:23;360.43;;;335.23;;
22378;SDS011;11357;49.990;7.370;2023-05-07T07:28:49;485.60;;;443.37;;
22378;SDS011;11357;49.990;7.370;2023-05-07T07:31:14;872.00;;;675.83;;
22378;SDS011;11357;49.990;7.370;2023-05-07T07:33:40;92.88;;;87.18;;
22378;SDS011;11357;49.990;7.370;2023-05-07T07:36:06;65.22;;;61.10;;
22378;SDS011;11357;49.990;7.370;2023-05-07T07:38:32;185.45;;;172.27;;
22378;SDS011;11357;49.990;7.370;2023-05-07T07:40:58;134.43;;;125.78;;
22378;SDS011;11357;49.990;7.370;2023-05-07T07:43:25;6.82;;;4.93;;
22378;SDS011;11357;49.990;7.370;2023-05-07T07:45:50;10.57;;;9.13;;
22378;SDS011;11357;49.990;7.370;2023-05-07T07:48:16;3.05;;;2.30;;
22378;SDS011;11357;49.990;7.370;2023-05-07T07:50:42;3.75;;;2.30;;
22378;SDS011;11357;49.990;7.370;2023-05-07T07:53:08;5.43;;;2.00;;
22378;SDS011;11357;49.990;7.370;2023-05-07T07:55:37;3.25;;;2.40;;
22378;SDS011;11357;49.990;7.370;2023-05-07T07:58:04;3.08;;;2.03;;
22378;SDS011;11357;49.990;7.370;2023-05-07T08:00:30;2.80;;;1.88;;
22378;SDS011;11357;49.990;7.370;2023-05-07T08:02:56;2.75;;;2.10;;
22378;SDS011;11357;49.990;7.370;2023-05-07T08:05:22;4.07;;;2.00;;
22378;SDS011;11357;49.990;7.370;2023-05-07T08:07:48;2.40;;;1.88;;
22378;SDS011;11357;49.990;7.370;2023-05-07T08:10:18;2.00;;;1.80;;
22378;SDS011;11357;49.990;7.370;2023-05-07T08:12:50;3.60;;;1.73;;
22378;SDS011;11357;49.990;7.370;2023-05-07T08:15:16;2.22;;;1.70;;
22378;SDS011;11357;49.990;7.370;2023-05-07T08:17:42;2.15;;;1.80;;
22378;SDS011;11357;49.990;7.370;2023-05-07T08:20:08;3.33;;;1.95;;
22378;SDS011;11357;49.990;7.370;2023-05-07T08:22:35;2.05;;;1.85;;
22378;SDS011;11357;49.990;7.370;2023-05-07T08:25:01;2.92;;;2.00;;
22378;SDS011;11357;49.990;7.370;2023-05-07T08:27:27;3.33;;;1.80;;
22378;SDS011;11357;49.990;7.370;2023-05-07T08:29:53;2.85;;;1.90;;
22378;SDS011;11357;49.990;7.370;2023-05-07T08:32:20;2.90;;;1.70;;
22378;SDS011;11357;49.990;7.370;2023-05-07T08:34:46;1.92;;;1.70;;
22378;SDS011;11357;49.990;7.370;2023-05-07T08:37:13;1.83;;;1.63;;
22378;SDS011;11357;49.990;7.370;2023-05-07T08:39:39;2.50;;;1.83;;
22378;SDS011;11357;49.990;7.370;2023-05-07T08:42:04;2.97;;;1.80;;
22378;SDS011;11357;49.990;7.370;2023-05-07T08:44:34;1.80;;;1.70;;
22378;SDS011;11357;49.990;7.370;2023-05-07T08:47:01;3.45;;;1.80;;
22378;SDS011;11357;49.990;7.370;2023-05-07T08:49:27;3.72;;;1.75;;
22378;SDS011;11357;49.990;7.370;2023-05-07T08:51:53;3.28;;;1.73;;
22378;SDS011;11357;49.990;7.370;2023-05-07T08:54:21;3.90;;;1.95;;
22378;SDS011;11357;49.990;7.370;2023-05-07T08:56:47;3.88;;;1.80;;
22378;SDS011;11357;49.990;7.370;2023-05-07T08:59:13;3.25;;;2.03;;
22378;SDS011;11357;49.990;7.370;2023-05-07T09:01:39;2.47;;;1.67;;
22378;SDS011;11357;49.990;7.370;2023-05-07T09:04:05;5.50;;;1.77;;
22378;SDS011;11357;49.990;7.370;2023-05-07T09:06:32;2.42;;;1.85;;
22378;SDS011;11357;49.990;7.370;2023-05-07T09:08:58;2.63;;;1.70;;
22378;SDS011;11357;49.990;7.370;2023-05-07T09:11:27;2.70;;;1.60;;
22378;SDS011;11357;49.990;7.370;2023-05-07T09:13:53;2.95;;;1.60;;
22378;SDS011;11357;49.990;7.370;2023-05-07T09:16:25;1.77;;;1.38;;
22378;SDS011;11357;49.990;7.370;2023-05-07T09:18:51;2.75;;;1.40;;
22378;SDS011;11357;49.990;7.370;2023-05-07T09:21:19;2.17;;;1.50;;
22378;SDS011;11357;49.990;7.370;2023-05-07T09:23:47;3.88;;;2.00;;
22378;SDS011;11357;49.990;7.370;2023-05-07T09:26:20;2.53;;;1.50;;
22378;SDS011;11357;49.990;7.370;2023-05-07T09:28:49;2.42;;;1.40;;
22378;SDS011;11357;49.990;7.370;2023-05-07T09:31:15;4.70;;;2.10;;
22378;SDS011;11357;49.990;7.370;2023-05-07T09:33:41;4.25;;;1.77;;
22378;SDS011;11357;49.990;7.370;2023-05-07T09:36:07;2.42;;;1.30;;
22378;SDS011;11357;49.990;7.370;2023-05-07T09:38:39;2.38;;;1.52;;
22378;SDS011;11357;49.990;7.370;2023-05-07T09:41:06;4.70;;;1.50;;
22378;SDS011;11357;49.990;7.370;2023-05-07T09:43:34;2.60;;;1.30;;
22378;SDS011;11357;49.990;7.370;2023-05-07T09:46:06;4.55;;;1.67;;
22378;SDS011;11357;49.990;7.370;2023-05-07T09:48:36;3.90;;;1.45;;
22378;SDS011;11357;49.990;7.370;2023-05-07T09:51:06;4.25;;;1.50;;
22378;SDS011;11357;49.990;7.370;2023-05-07T09:53:37;3.72;;;1.55;;
22378;SDS011;11357;49.990;7.370;2023-05-07T09:56:05;4.38;;;1.85;;
22378;SDS011;11357;49.990;7.370;2023-05-07T09:58:31;2.53;;;1.45;;
22378;SDS011;11357;49.990;7.370;2023-05-07T10:00:58;1.50;;;1.35;;
22378;SDS011;11357;49.990;7.370;2023-05-07T10:03:25;6.13;;;1.85;;
22378;SDS011;11357;49.990;7.370;2023-05-07T10:05:54;2.13;;;1.42;;
22378;SDS011;11357;49.990;7.370;2023-05-07T10:08:21;1.88;;;1.67;;
22378;SDS011;11357;49.990;7.370;2023-05-07T10:10:47;2.38;;;1.42;;
22378;SDS011;11357;49.990;7.370;2023-05-07T10:13:14;1.83;;;1.40;;
22378;SDS011;11357;49.990;7.370;2023-05-07T10:15:40;2.40;;;1.60;;
22378;SDS011;11357;49.990;7.370;2023-05-07T10:18:06;1.88;;;1.40;;
22378;SDS011;11357;49.990;7.370;2023-05-07T10:20:33;1.52;;;1.20;;
22378;SDS011;11357;49.990;7.370;2023-05-07T10:23:02;4.10;;;1.40;;
22378;SDS011;11357;49.990;7.370;2023-05-07T10:25:30;1.92;;;1.35;;
22378;SDS011;11357;49.990;7.370;2023-05-07T10:27:59;4.88;;;1.27;;
22378;SDS011;11357;49.990;7.370;2023-05-07T10:30:38;3.08;;;1.27;;
22378;SDS011;11357;49.990;7.370;2023-05-07T10:33:26;2.60;;;1.58;;
22378;SDS011;11357;49.990;7.370;2023-05-07T10:36:00;2.58;;;1.67;;
22378;SDS011;11357;49.990;7.370;2023-05-07T10:38:29;2.00;;;1.20;;
22378;SDS011;11357;49.990;7.370;2023-05-07T10:40:55;1.90;;;1.30;;
22378;SDS011;11357;49.990;7.370;2023-05-07T10:43:21;3.38;;;1.48;;
22378;SDS011;11357;49.990;7.370;2023-05-07T10:49:25;7.47;;;1.50;;
22378;SDS011;11357;49.990;7.370;2023-05-07T10:51:27;2.03;;;1.17;;
22378;SDS011;11357;49.990;7.370;2023-05-07T10:56:41;4.18;;;1.35;;
22378;SDS011;11357;49.990;7.370;2023-05-07T11:02:00;2.83;;;1.27;;
22378;SDS011;11357;49.990;7.370;2023-05-07T11:04:29;2.78;;;1.45;;
22378;SDS011;11357;49.990;7.370;2023-05-07T11:12:16;3.20;;;1.50;;
22378;SDS011;11357;49.990;7.370;2023-05-07T11:17:32;1.25;;;1.15;;
22378;SDS011;11357;49.990;7.370;2023-05-07T11:19:59;2.15;;;1.20;;
22378;SDS011;11357;49.990;7.370;2023-05-07T11:22:45;1.33;;;1.23;;
22378;SDS011;11357;49.990;7.370;2023-05-07T11:25:18;2.67;;;1.13;;
22378;SDS011;11357;49.990;7.370;2023-05-07T11:27:44;3.47;;;1.20;;
22378;SDS011;11357;49.990;7.370;2023-05-07T11:30:11;4.70;;;1.45;;
22378;SDS011;11357;49.990;7.370;2023-05-07T11:32:44;3.00;;;1.50;;
22378;SDS011;11357;49.990;7.370;2023-05-07T11:35:14;3.15;;;1.35;;
22378;SDS011;11357;49.990;7.370;2023-05-07T11:37:41;2.97;;;1.48;;
22378;SDS011;11357;49.990;7.370;2023-05-07T11:40:09;3.05;;;1.20;;
22378;SDS011;11357;49.990;7.370;2023-05-07T11:42:43;2.22;;;1.23;;
22378;SDS011;11357;49.990;7.370;2023-05-07T11:45:09;1.65;;;1.33;;
22378;SDS011;11357;49.990;7.370;2023-05-07T11:47:35;2.30;;;1.40;;
22378;SDS011;11357;49.990;7.370;2023-05-07T11:50:06;2.63;;;1.27;;
22378;SDS011;11357;49.990;7.370;2023-05-07T11:52:33;3.38;;;1.10;;
22378;SDS011;11357;49.990;7.370;2023-05-07T11:55:00;1.75;;;1.30;;
22378;SDS011;11357;49.990;7.370;2023-05-07T11:57:27;2.88;;;1.60;;
22378;SDS011;11357;49.990;7.370;2023-05-07T11:59:57;3.20;;;1.50;;
22378;SDS011;11357;49.990;7.370;2023-05-07T12:02:24;4.03;;;1.48;;
22378;SDS011;11357;49.990;7.370;2023-05-07T12:04:54;3.70;;;1.90;;
22378;SDS011;11357;49.990;7.370;2023-05-07T12:07:20;4.28;;;1.40;;
22378;SDS011;11357;49.990;7.370;2023-05-07T12:09:46;1.55;;;1.38;;
22378;SDS011;11357;49.990;7.370;2023-05-07T12:12:12;1.40;;;1.30;;
22378;SDS011;11357;49.990;7.370;2023-05-07T12:14:44;5.53;;;2.00;;
22378;SDS011;11357;49.990;7.370;2023-05-07T12:17:11;2.38;;;1.52;;
22378;SDS011;11357;49.990;7.370;2023-05-07T12:19:39;2.95;;;1.65;;
22378;SDS011;11357;49.990;7.370;2023-05-07T12:22:09;2.60;;;1.52;;
22378;SDS011;11357;49.990;7.370;2023-05-07T12:24:49;3.55;;;1.65;;
22378;SDS011;11357;49.990;7.370;2023-05-07T12:27:21;6.43;;;1.67;;
22378;SDS011;11357;49.990;7.370;2023-05-07T12:29:48;3.38;;;1.60;;
22378;SDS011;11357;49.990;7.370;2023-05-07T12:32:16;3.42;;;1.40;;
22378;SDS011;11357;49.990;7.370;2023-05-07T12:34:44;3.42;;;1.80;;
22378;SDS011;11357;49.990;7.370;2023-05-07T12:37:10;4.50;;;1.90;;
22378;SDS011;11357;49.990;7.370;2023-05-07T12:39:37;2.30;;;1.70;;
22378;SDS011;11357;49.990;7.370;2023-05-07T12:42:09;2.75;;;1.73;;
22378;SDS011;11357;49.990;7.370;2023-05-07T12:44:41;3.63;;;1.60;;
22378;SDS011;11357;49.990;7.370;2023-05-07T12:47:07;2.40;;;1.65;;
22378;SDS011;11357;49.990;7.370;2023-05-07T12:49:34;2.20;;;1.63;;
22378;SDS011;11357;49.990;7.370;2023-05-07T12:52:02;1.63;;;1.35;;
22378;SDS011;11357;49.990;7.370;2023-05-07T12:54:35;2.50;;;1.52;;
22378;SDS011;11357;49.990;7.370;2023-05-07T12:57:03;1.80;;;1.40;;
22378;SDS011;11357;49.990;7.370;2023-05-07T12:59:37;2.75;;;1.63;;
22378;SDS011;11357;49.990;7.370;2023-05-07T13:02:07;2.13;;;1.40;;
22378;SDS011;11357;49.990;7.370;2023-05-07T13:04:33;2.35;;;1.50;;
22378;SDS011;11357;49.990;7.370;2023-05-07T13:07:00;2.13;;;1.45;;
22378;SDS011;11357;49.990;7.370;2023-05-07T13:09:26;1.92;;;1.20;;
22378;SDS011;11357;49.990;7.370;2023-05-07T13:11:54;2.20;;;1.40;;
22378;SDS011;11357;49.990;7.370;2023-05-07T13:14:20;2.88;;;1.98;;
22378;SDS011;11357;49.990;7.370;2023-05-07T13:16:46;3.58;;;1.70;;
22378;SDS011;11357;49.990;7.370;2023-05-07T13:19:12;2.08;;;1.35;;
22378;SDS011;11357;49.990;7.370;2023-05-07T13:21:38;4.53;;;1.45;;
22378;SDS011;11357;49.990;7.370;2023-05-07T13:24:04;3.65;;;1.35;;
22378;SDS011;11357;49.990;7.370;2023-05-07T13:26:30;2.95;;;1.80;;
22378;SDS011;11357;49.990;7.370;2023-05-07T13:28:56;5.97;;;1.40;;
22378;SDS011;11357;49.990;7.370;2023-05-07T13:31:22;2.38;;;1.60;;
22378;SDS011;11357;49.990;7.370;2023-05-07T13:33:48;2.90;;;1.40;;
22378;SDS011;11357;49.990;7.370;2023-05-07T13:36:14;4.60;;;1.50;;
22378;SDS011;11357;49.990;7.370;2023-05-07T13:38:40;3.53;;;1.23;;
22378;SDS011;11357;49.990;7.370;2023-05-07T13:41:07;3.45;;;1.55;;
22378;SDS011;11357;49.990;7.370;2023-05-07T13:43:33;2.65;;;1.67;;
22378;SDS011;11357;49.990;7.370;2023-05-07T13:45:59;3.10;;;1.33;;
22378;SDS011;11357;49.990;7.370;2023-05-07T13:48:26;3.03;;;1.65;;
22378;SDS011;11357;49.990;7.370;2023-05-07T13:50:53;3.17;;;1.67;;
22378;SDS011;11357;49.990;7.370;2023-05-07T13:53:19;7.30;;;1.85;;
22378;SDS011;11357;49.990;7.370;2023-05-07T13:55:45;3.78;;;1.98;;
22378;SDS011;11357;49.990;7.370;2023-05-07T13:58:10;2.45;;;1.40;;
22378;SDS011;11357;49.990;7.370;2023-05-07T14:00:36;4.75;;;1.77;;
22378;SDS011;11357;49.990;7.370;2023-05-07T14:03:02;3.03;;;2.05;;
22378;SDS011;11357;49.990;7.370;2023-05-07T14:05:29;3.92;;;1.80;;
22378;SDS011;11357;49.990;7.370;2023-05-07T14:07:56;5.32;;;2.03;;
22378;SDS011;11357;49.990;7.370;2023-05-07T14:10:23;3.08;;;1.77;;
22378;SDS011;11357;49.990;7.370;2023-05-07T14:12:49;4.07;;;2.20;;
22378;SDS011;11357;49.990;7.370;2023-05-07T14:15:14;2.67;;;1.60;;
22378;SDS011;11357;49.990;7.370;2023-05-07T14:17:41;3.63;;;1.52;;
22378;SDS011;11357;49.990;7.370;2023-05-07T14:20:07;5.40;;;1.90;;
22378;SDS011;11357;49.990;7.370;2023-05-07T14:22:35;4.40;;;1.70;;
22378;SDS011;11357;49.990;7.370;2023-05-07T14:25:01;3.53;;;1.70;;
22378;SDS011;11357;49.990;7.370;2023-05-07T14:27:27;2.63;;;1.77;;